sensor_id;sensor_type;location;lat;lon;timestamp;temperature;humidity
53599;DHT22;39485;45.702;11.364;2023-05-15T00:02:13;10.50;99.90
53599;DHT22;39485;45.702;11.364;2023-05-15T00:04:39;10.50;99.90
53599;DHT22;39485;45.702;11.364;2023-05-15T00:07:05;10.50;99.90
53599;DHT22;39485;45.702;11.364;2023-05-15T00:09:30;10.50;99.90
53599;DHT22;39485;45.702;11.364;2023-05-15T00:11:56;10.50;99.90
53599;DHT22;39485;45.702;11.364;2023-05-15T00:14:23;10.40;99.90
53599;DHT22;39485;45.702;11.364;2023-05-15T00:16:49;10.40;99.90
53599;DHT22;39485;45.702;11.364;2023-05-15T00:19:15;10.40;99.90
53599;DHT22;39485;45.702;11.364;2023-05-15T00:21:41;10.40;99.90
53599;DHT22;39485;45.702;11.364;2023-05-15T00:24:07;10.30;99.90
53599;DHT22;39485;45.702;11.364;2023-05-15T00:26:33;10.30;99.90
53599;DHT22;39485;45.702;11.364;2023-05-15T00:29:01;10.30;99.90
53599;DHT22;39485;45.702;11.364;2023-05-15T00:31:26;10.30;99.90
53599;DHT22;39485;45.702;11.364;2023-05-15T00:33:52;10.20;99.90
53599;DHT22;39485;45.702;11.364;2023-05-15T00:36:18;10.30;99.90
53599;DHT22;39485;45.702;11.364;2023-05-15T00:38:46;10.20;99.90
53599;DHT22;39485;45.702;11.364;2023-05-15T00:41:12;10.20;99.90
53599;DHT22;39485;45.702;11.364;2023-05-15T00:43:39;10.20;99.90
53599;DHT22;39485;45.702;11.364;2023-05-15T00:46:06;10.20;99.90
53599;DHT22;39485;45.702;11.364;2023-05-15T00:48:32;10.20;99.90
53599;DHT22;39485;45.702;11.364;2023-05-15T00:50:58;10.20;99.90
53599;DHT22;39485;45.702;11.364;2023-05-15T00:53:26;10.20;99.90
53599;DHT22;39485;45.702;11.364;2023-05-15T00:55:55;10.20;99.90
53599;DHT22;39485;45.702;11.364;2023-05-15T00:58:22;10.20;99.90
53599;DHT22;39485;45.702;11.364;2023-05-15T01:00:49;10.20;99.90
53599;DHT22;39485;45.702;11.364;2023-05-15T01:03:15;10.10;99.90
53599;DHT22;39485;45.702;11.364;2023-05-15T01:05:41;10.10;99.90
53599;DHT22;39485;45.702;11.364;2023-05-15T01:10:42;10.10;99.90
53599;DHT22;39485;45.702;11.364;2023-05-15T01:13:08;10.10;99.90
53599;DHT22;39485;45.702;11.364;2023-05-15T01:15:35;10.10;99.90
53599;DHT22;39485;45.702;11.364;2023-05-15T01:18:00;10.10;99.90
53599;DHT22;39485;45.702;11.364;2023-05-15T01:20:26;10.10;99.90
53599;DHT22;39485;45.702;11.364;2023-05-15T01:23:08;10.10;99.90
53599;DHT22;39485;45.702;11.364;2023-05-15T01:26:06;10.10;99.90
53599;DHT22;39485;45.702;11.364;2023-05-15T01:28:42;10.00;99.90
53599;DHT22;39485;45.702;11.364;2023-05-15T01:31:14;10.00;99.90
53599;DHT22;39485;45.702;11.364;2023-05-15T01:33:45;10.00;99.90
53599;DHT22;39485;45.702;11.364;2023-05-15T01:36:26;10.00;99.90
53599;DHT22;39485;45.702;11.364;2023-05-15T01:38:56;10.00;99.90
53599;DHT22;39485;45.702;11.364;2023-05-15T01:41:34;10.00;99.90
53599;DHT22;39485;45.702;11.364;2023-05-15T01:44:13;10.00;99.90
53599;DHT22;39485;45.702;11.364;2023-05-15T01:46:50;10.10;99.90
53599;DHT22;39485;45.702;11.364;2023-05-15T01:49:18;10.10;99.90
53599;DHT22;39485;45.702;11.364;2023-05-15T01:51:47;10.10;99.90
53599;DHT22;39485;45.702;11.364;2023-05-15T01:54:14;10.10;99.90
53599;DHT22;39485;45.702;11.364;2023-05-15T01:56:42;10.10;99.90
53599;DHT22;39485;45.702;11.364;2023-05-15T01:59:12;10.10;99.90
53599;DHT22;39485;45.702;11.364;2023-05-15T02:01:39;10.10;99.90
53599;DHT22;39485;45.702;11.364;2023-05-15T02:04:05;10.10;99.90
53599;DHT22;39485;45.702;11.364;2023-05-15T02:06:32;10.00;99.90
53599;DHT22;39485;45.702;11.364;2023-05-15T02:09:01;10.00;99.90
53599;DHT22;39485;45.702;11.364;2023-05-15T02:11:27;10.00;99.90
53599;DHT22;39485;45.702;11.364;2023-05-15T02:13:55;10.00;99.90
53599;DHT22;39485;45.702;11.364;2023-05-15T02:16:21;10.00;99.90
53599;DHT22;39485;45.702;11.364;2023-05-15T02:18:47;10.00;99.90
53599;DHT22;39485;45.702;11.364;2023-05-15T02:21:14;10.00;99.90
53599;DHT22;39485;45.702;11.364;2023-05-15T02:23:39;10.00;99.90
53599;DHT22;39485;45.702;11.364;2023-05-15T02:34:43;10.00;99.90
53599;DHT22;39485;45.702;11.364;2023-05-15T02:37:12;10.00;99.90
53599;DHT22;39485;45.702;11.364;2023-05-15T02:39:41;10.00;99.90
53599;DHT22;39485;45.702;11.364;2023-05-15T02:42:10;10.00;99.90
53599;DHT22;39485;45.702;11.364;2023-05-15T02:44:38;10.00;99.90
53599;DHT22;39485;45.702;11.364;2023-05-15T02:47:05;10.00;99.90
53599;DHT22;39485;45.702;11.364;2023-05-15T02:49:32;10.00;99.90
53599;DHT22;39485;45.702;11.364;2023-05-15T02:51:58;10.00;99.90
53599;DHT22;39485;45.702;11.364;2023-05-15T02:54:24;9.90;99.90
53599;DHT22;39485;45.702;11.364;2023-05-15T02:56:50;9.90;99.90
53599;DHT22;39485;45.702;11.364;2023-05-15T02:59:15;9.90;99.90
53599;DHT22;39485;45.702;11.364;2023-05-15T03:01:44;9.90;99.90
53599;DHT22;39485;45.702;11.364;2023-05-15T03:04:13;9.90;99.90
53599;DHT22;39485;45.702;11.364;2023-05-15T03:06:39;9.90;99.90
53599;DHT22;39485;45.702;11.364;2023-05-15T03:09:04;9.90;99.90
53599;DHT22;39485;45.702;11.364;2023-05-15T03:11:30;9.90;99.90
53599;DHT22;39485;45.702;11.364;2023-05-15T03:13:55;9.90;99.90
53599;DHT22;39485;45.702;11.364;2023-05-15T03:16:21;9.90;99.90
53599;DHT22;39485;45.702;11.364;2023-05-15T03:18:47;9.90;99.90
53599;DHT22;39485;45.702;11.364;2023-05-15T03:21:13;10.00;99.90
53599;DHT22;39485;45.702;11.364;2023-05-15T03:23:38;10.00;99.90
53599;DHT22;39485;45.702;11.364;2023-05-15T03:26:04;9.90;99.90
53599;DHT22;39485;45.702;11.364;2023-05-15T03:28:30;10.00;99.90
53599;DHT22;39485;45.702;11.364;2023-05-15T03:30:55;9.90;99.90
53599;DHT22;39485;45.702;11.364;2023-05-15T03:33:21;9.90;99.90
53599;DHT22;39485;45.702;11.364;2023-05-15T03:35:47;9.90;99.90
53599;DHT22;39485;45.702;11.364;2023-05-15T03:38:12;9.90;99.90
53599;DHT22;39485;45.702;11.364;2023-05-15T03:40:38;9.80;99.90
53599;DHT22;39485;45.702;11.364;2023-05-15T03:43:05;9.80;99.90
53599;DHT22;39485;45.702;11.364;2023-05-15T03:45:32;9.80;99.90
53599;DHT22;39485;45.702;11.364;2023-05-15T03:47:59;9.80;99.90
53599;DHT22;39485;45.702;11.364;2023-05-15T03:50:25;9.70;99.90
53599;DHT22;39485;45.702;11.364;2023-05-15T03:52:50;9.80;99.90
53599;DHT22;39485;45.702;11.364;2023-05-15T03:55:16;9.70;99.90
53599;DHT22;39485;45.702;11.364;2023-05-15T03:57:42;9.70;99.90
53599;DHT22;39485;45.702;11.364;2023-05-15T04:00:08;9.70;99.90
53599;DHT22;39485;45.702;11.364;2023-05-15T04:02:35;9.70;99.90
53599;DHT22;39485;45.702;11.364;2023-05-15T04:05:03;9.70;99.90
53599;DHT22;39485;45.702;11.364;2023-05-15T04:07:30;9.70;99.90
53599;DHT22;39485;45.702;11.364;2023-05-15T04:09:55;9.70;99.90
53599;DHT22;39485;45.702;11.364;2023-05-15T04:12:21;9.70;99.90
53599;DHT22;39485;45.702;11.364;2023-05-15T04:14:47;9.70;99.90
53599;DHT22;39485;45.702;11.364;2023-05-15T04:17:12;9.70;99.90
53599;DHT22;39485;45.702;11.364;2023-05-15T04:19:38;9.80;99.90
53599;DHT22;39485;45.702;11.364;2023-05-15T04:22:05;9.80;99.90
53599;DHT22;39485;45.702;11.364;2023-05-15T04:24:30;9.80;99.90
53599;DHT22;39485;45.702;11.364;2023-05-15T04:26:56;9.80;99.90
53599;DHT22;39485;45.702;11.364;2023-05-15T04:29:22;9.90;99.90
53599;DHT22;39485;45.702;11.364;2023-05-15T04:31:47;9.90;99.90
53599;DHT22;39485;45.702;11.364;2023-05-15T04:34:13;9.90;99.90
53599;DHT22;39485;45.702;11.364;2023-05-15T04:36:38;9.90;99.90
53599;DHT22;39485;45.702;11.364;2023-05-15T04:39:04;10.00;99.90
53599;DHT22;39485;45.702;11.364;2023-05-15T04:41:31;10.00;99.90
53599;DHT22;39485;45.702;11.364;2023-05-15T04:43:57;10.10;99.90
53599;DHT22;39485;45.702;11.364;2023-05-15T04:46:23;10.10;99.90
53599;DHT22;39485;45.702;11.364;2023-05-15T04:48:49;10.20;99.90
53599;DHT22;39485;45.702;11.364;2023-05-15T04:51:15;10.20;99.90
53599;DHT22;39485;45.702;11.364;2023-05-15T04:53:40;10.30;99.90
53599;DHT22;39485;45.702;11.364;2023-05-15T04:56:06;10.50;99.90
53599;DHT22;39485;45.702;11.364;2023-05-15T04:58:32;10.60;99.90
53599;DHT22;39485;45.702;11.364;2023-05-15T05:00:57;10.70;99.90
53599;DHT22;39485;45.702;11.364;2023-05-15T05:03:23;10.90;99.90
53599;DHT22;39485;45.702;11.364;2023-05-15T05:05:48;11.10;99.90
53599;DHT22;39485;45.702;11.364;2023-05-15T05:08:14;11.20;99.90
53599;DHT22;39485;45.702;11.364;2023-05-15T05:10:40;11.30;99.90
53599;DHT22;39485;45.702;11.364;2023-05-15T05:13:05;11.40;99.90
53599;DHT22;39485;45.702;11.364;2023-05-15T05:15:31;11.50;99.90
53599;DHT22;39485;45.702;11.364;2023-05-15T05:17:56;11.50;99.90
53599;DHT22;39485;45.702;11.364;2023-05-15T05:20:22;11.60;99.90
53599;DHT22;39485;45.702;11.364;2023-05-15T05:22:56;11.70;99.90
53599;DHT22;39485;45.702;11.364;2023-05-15T05:25:22;11.80;99.90
53599;DHT22;39485;45.702;11.364;2023-05-15T05:27:48;11.80;99.90
53599;DHT22;39485;45.702;11.364;2023-05-15T05:30:13;11.90;99.90
53599;DHT22;39485;45.702;11.364;2023-05-15T05:32:39;11.90;99.90
53599;DHT22;39485;45.702;11.364;2023-05-15T05:35:05;11.90;99.90
53599;DHT22;39485;45.702;11.364;2023-05-15T05:37:31;12.00;99.90
53599;DHT22;39485;45.702;11.364;2023-05-15T05:39:56;12.00;99.90
53599;DHT22;39485;45.702;11.364;2023-05-15T05:42:22;12.10;99.90
53599;DHT22;39485;45.702;11.364;2023-05-15T05:44:47;12.20;99.90
53599;DHT22;39485;45.702;11.364;2023-05-15T05:47:13;12.30;99.90
53599;DHT22;39485;45.702;11.364;2023-05-15T05:49:39;12.30;99.90
53599;DHT22;39485;45.702;11.364;2023-05-15T05:52:06;12.50;99.90
53599;DHT22;39485;45.702;11.364;2023-05-15T05:54:32;12.50;99.90
53599;DHT22;39485;45.702;11.364;2023-05-15T05:56:58;12.60;99.90
53599;DHT22;39485;45.702;11.364;2023-05-15T05:59:23;12.60;99.90
53599;DHT22;39485;45.702;11.364;2023-05-15T06:01:49;12.80;99.90
53599;DHT22;39485;45.702;11.364;2023-05-15T06:04:15;12.90;99.90
53599;DHT22;39485;45.702;11.364;2023-05-15T06:06:40;13.00;99.90
53599;DHT22;39485;45.702;11.364;2023-05-15T06:09:06;13.20;99.90
53599;DHT22;39485;45.702;11.364;2023-05-15T06:11:32;13.30;99.90
53599;DHT22;39485;45.702;11.364;2023-05-15T06:13:57;13.50;99.90
53599;DHT22;39485;45.702;11.364;2023-05-15T06:16:23;13.60;99.90
53599;DHT22;39485;45.702;11.364;2023-05-15T06:18:49;13.80;99.90
53599;DHT22;39485;45.702;11.364;2023-05-15T06:21:14;13.90;99.90
53599;DHT22;39485;45.702;11.364;2023-05-15T06:23:40;14.10;99.90
53599;DHT22;39485;45.702;11.364;2023-05-15T06:26:06;14.20;99.90
53599;DHT22;39485;45.702;11.364;2023-05-15T06:28:31;14.40;99.90
53599;DHT22;39485;45.702;11.364;2023-05-15T06:30:57;14.60;99.90
53599;DHT22;39485;45.702;11.364;2023-05-15T06:33:23;14.80;99.90
53599;DHT22;39485;45.702;11.364;2023-05-15T06:35:48;14.90;99.90
53599;DHT22;39485;45.702;11.364;2023-05-15T06:38:15;15.00;99.90
53599;DHT22;39485;45.702;11.364;2023-05-15T06:40:43;15.10;99.90
53599;DHT22;39485;45.702;11.364;2023-05-15T06:43:09;15.20;99.90
53599;DHT22;39485;45.702;11.364;2023-05-15T06:45:35;15.20;99.90
53599;DHT22;39485;45.702;11.364;2023-05-15T06:48:01;15.20;99.90
53599;DHT22;39485;45.702;11.364;2023-05-15T06:50:27;15.40;99.90
53599;DHT22;39485;45.702;11.364;2023-05-15T06:52:52;15.50;99.90
53599;DHT22;39485;45.702;11.364;2023-05-15T06:55:19;15.60;99.90
53599;DHT22;39485;45.702;11.364;2023-05-15T06:57:45;15.80;99.90
53599;DHT22;39485;45.702;11.364;2023-05-15T07:00:11;15.90;99.90
53599;DHT22;39485;45.702;11.364;2023-05-15T07:02:36;15.90;99.90
53599;DHT22;39485;45.702;11.364;2023-05-15T07:05:02;15.90;99.90
53599;DHT22;39485;45.702;11.364;2023-05-15T07:07:28;15.90;99.90
53599;DHT22;39485;45.702;11.364;2023-05-15T07:09:53;15.90;99.90
53599;DHT22;39485;45.702;11.364;2023-05-15T07:12:19;15.80;99.90
53599;DHT22;39485;45.702;11.364;2023-05-15T07:14:45;15.80;99.90
53599;DHT22;39485;45.702;11.364;2023-05-15T07:17:10;15.80;99.90
53599;DHT22;39485;45.702;11.364;2023-05-15T07:19:36;15.70;99.90
53599;DHT22;39485;45.702;11.364;2023-05-15T07:22:02;15.80;99.90
53599;DHT22;39485;45.702;11.364;2023-05-15T07:24:27;15.80;99.90
53599;DHT22;39485;45.702;11.364;2023-05-15T07:26:53;15.80;99.90
53599;DHT22;39485;45.702;11.364;2023-05-15T07:29:21;15.90;99.90
53599;DHT22;39485;45.702;11.364;2023-05-15T07:31:47;16.00;99.90
53599;DHT22;39485;45.702;11.364;2023-05-15T07:34:12;16.00;99.90
53599;DHT22;39485;45.702;11.364;2023-05-15T07:36:38;16.00;99.90
53599;DHT22;39485;45.702;11.364;2023-05-15T07:39:04;16.00;99.90
53599;DHT22;39485;45.702;11.364;2023-05-15T07:41:30;16.10;99.90
53599;DHT22;39485;45.702;11.364;2023-05-15T07:43:57;16.10;99.90
53599;DHT22;39485;45.702;11.364;2023-05-15T07:46:23;16.20;99.90
53599;DHT22;39485;45.702;11.364;2023-05-15T07:48:49;16.30;99.90
53599;DHT22;39485;45.702;11.364;2023-05-15T07:51:14;16.30;99.90
53599;DHT22;39485;45.702;11.364;2023-05-15T07:53:40;16.40;99.90
53599;DHT22;39485;45.702;11.364;2023-05-15T07:56:06;16.40;99.90
53599;DHT22;39485;45.702;11.364;2023-05-15T07:58:31;16.50;99.90
53599;DHT22;39485;45.702;11.364;2023-05-15T08:00:59;16.50;99.90
53599;DHT22;39485;45.702;11.364;2023-05-15T08:03:25;16.60;99.90
53599;DHT22;39485;45.702;11.364;2023-05-15T08:05:51;16.60;99.90
53599;DHT22;39485;45.702;11.364;2023-05-15T08:08:16;16.60;99.90
53599;DHT22;39485;45.702;11.364;2023-05-15T08:10:42;16.70;99.90
53599;DHT22;39485;45.702;11.364;2023-05-15T08:13:08;16.80;99.90
53599;DHT22;39485;45.702;11.364;2023-05-15T08:15:33;16.80;99.90
53599;DHT22;39485;45.702;11.364;2023-05-15T08:17:59;16.90;99.90
53599;DHT22;39485;45.702;11.364;2023-05-15T08:20:25;16.90;99.90
53599;DHT22;39485;45.702;11.364;2023-05-15T08:22:50;17.00;99.90
53599;DHT22;39485;45.702;11.364;2023-05-15T08:25:16;16.90;99.90
53599;DHT22;39485;45.702;11.364;2023-05-15T08:27:41;17.00;99.90
53599;DHT22;39485;45.702;11.364;2023-05-15T08:30:07;17.00;99.90
53599;DHT22;39485;45.702;11.364;2023-05-15T08:32:33;17.00;99.90
53599;DHT22;39485;45.702;11.364;2023-05-15T08:34:59;17.00;99.90
53599;DHT22;39485;45.702;11.364;2023-05-15T08:37:25;17.00;99.90
53599;DHT22;39485;45.702;11.364;2023-05-15T08:39:50;17.00;99.90
53599;DHT22;39485;45.702;11.364;2023-05-15T08:42:32;17.00;99.90
53599;DHT22;39485;45.702;11.364;2023-05-15T08:45:00;17.10;99.90
53599;DHT22;39485;45.702;11.364;2023-05-15T08:47:27;17.10;99.90
53599;DHT22;39485;45.702;11.364;2023-05-15T08:49:59;17.10;99.90
53599;DHT22;39485;45.702;11.364;2023-05-15T08:52:29;17.10;99.90
53599;DHT22;39485;45.702;11.364;2023-05-15T08:54:55;17.20;99.90
53599;DHT22;39485;45.702;11.364;2023-05-15T08:57:21;17.30;99.90
53599;DHT22;39485;45.702;11.364;2023-05-15T08:59:48;17.30;99.90
53599;DHT22;39485;45.702;11.364;2023-05-15T09:02:14;17.40;99.90
53599;DHT22;39485;45.702;11.364;2023-05-15T09:04:40;17.40;99.90
53599;DHT22;39485;45.702;11.364;2023-05-15T09:07:07;17.50;99.90
53599;DHT22;39485;45.702;11.364;2023-05-15T09:09:34;17.60;99.90
53599;DHT22;39485;45.702;11.364;2023-05-15T09:12:00;17.70;99.90
53599;DHT22;39485;45.702;11.364;2023-05-15T09:14:26;17.70;99.90
53599;DHT22;39485;45.702;11.364;2023-05-15T09:16:52;17.80;99.90
53599;DHT22;39485;45.702;11.364;2023-05-15T09:19:18;17.90;99.90
53599;DHT22;39485;45.702;11.364;2023-05-15T09:21:45;18.00;99.90
53599;DHT22;39485;45.702;11.364;2023-05-15T09:24:24;18.00;99.90
53599;DHT22;39485;45.702;11.364;2023-05-15T09:29:29;18.00;99.90
53599;DHT22;39485;45.702;11.364;2023-05-15T09:31:56;18.00;99.90
53599;DHT22;39485;45.702;11.364;2023-05-15T09:34:32;18.10;99.90
53599;DHT22;39485;45.702;11.364;2023-05-15T09:37:00;18.10;99.90
53599;DHT22;39485;45.702;11.364;2023-05-15T09:39:26;18.00;99.90
53599;DHT22;39485;45.702;11.364;2023-05-15T09:41:52;18.00;99.90
53599;DHT22;39485;45.702;11.364;2023-05-15T09:44:24;18.00;99.90
53599;DHT22;39485;45.702;11.364;2023-05-15T09:46:50;18.00;99.90
53599;DHT22;39485;45.702;11.364;2023-05-15T09:49:17;18.10;99.90
53599;DHT22;39485;45.702;11.364;2023-05-15T09:51:43;18.20;99.90
53599;DHT22;39485;45.702;11.364;2023-05-15T09:54:16;18.20;99.90
53599;DHT22;39485;45.702;11.364;2023-05-15T09:56:44;18.30;99.90
53599;DHT22;39485;45.702;11.364;2023-05-15T09:59:12;18.40;99.90
53599;DHT22;39485;45.702;11.364;2023-05-15T10:01:41;18.40;99.90
53599;DHT22;39485;45.702;11.364;2023-05-15T10:04:08;18.40;99.90
53599;DHT22;39485;45.702;11.364;2023-05-15T10:06:36;18.50;99.90
53599;DHT22;39485;45.702;11.364;2023-05-15T10:09:02;18.50;99.90
53599;DHT22;39485;45.702;11.364;2023-05-15T10:11:39;18.60;99.90
53599;DHT22;39485;45.702;11.364;2023-05-15T10:14:07;18.60;99.90
53599;DHT22;39485;45.702;11.364;2023-05-15T10:16:34;18.60;99.90
53599;DHT22;39485;45.702;11.364;2023-05-15T10:19:17;18.70;99.90
53599;DHT22;39485;45.702;11.364;2023-05-15T10:21:44;18.60;99.90
53599;DHT22;39485;45.702;11.364;2023-05-15T10:24:11;18.70;99.90
53599;DHT22;39485;45.702;11.364;2023-05-15T10:26:39;18.80;99.90
53599;DHT22;39485;45.702;11.364;2023-05-15T10:29:10;19.00;99.90
53599;DHT22;39485;45.702;11.364;2023-05-15T10:31:36;19.10;99.90
53599;DHT22;39485;45.702;11.364;2023-05-15T10:34:06;19.10;99.90
53599;DHT22;39485;45.702;11.364;2023-05-15T10:36:33;19.20;99.90
53599;DHT22;39485;45.702;11.364;2023-05-15T10:39:03;19.30;99.90
53599;DHT22;39485;45.702;11.364;2023-05-15T10:41:31;19.40;99.90
53599;DHT22;39485;45.702;11.364;2023-05-15T10:43:58;19.60;99.90
53599;DHT22;39485;45.702;11.364;2023-05-15T10:46:28;19.60;99.90
53599;DHT22;39485;45.702;11.364;2023-05-15T10:48:55;19.70;99.90
53599;DHT22;39485;45.702;11.364;2023-05-15T10:51:26;19.70;99.90
53599;DHT22;39485;45.702;11.364;2023-05-15T10:53:52;19.70;99.90
53599;DHT22;39485;45.702;11.364;2023-05-15T10:56:19;19.60;99.90
53599;DHT22;39485;45.702;11.364;2023-05-15T10:58:49;19.60;99.90
53599;DHT22;39485;45.702;11.364;2023-05-15T11:04:11;19.60;99.90
53599;DHT22;39485;45.702;11.364;2023-05-15T11:06:40;19.60;99.90
53599;DHT22;39485;45.702;11.364;2023-05-15T11:11:54;19.70;99.90
53599;DHT22;39485;45.702;11.364;2023-05-15T11:14:22;19.70;99.90
53599;DHT22;39485;45.702;11.364;2023-05-15T11:22:00;19.60;99.90
53599;DHT22;39485;45.702;11.364;2023-05-15T11:24:32;19.60;99.90
53599;DHT22;39485;45.702;11.364;2023-05-15T11:27:12;19.60;99.90
53599;DHT22;39485;45.702;11.364;2023-05-15T11:32:54;19.60;99.90
53599;DHT22;39485;45.702;11.364;2023-05-15T11:35:26;19.70;99.90
53599;DHT22;39485;45.702;11.364;2023-05-15T11:38:10;19.60;99.90
53599;DHT22;39485;45.702;11.364;2023-05-15T11:43:21;19.50;99.90
53599;DHT22;39485;45.702;11.364;2023-05-15T11:45:51;19.50;99.90
53599;DHT22;39485;45.702;11.364;2023-05-15T11:48:20;19.50;99.90
53599;DHT22;39485;45.702;11.364;2023-05-15T11:50:46;19.50;99.90
53599;DHT22;39485;45.702;11.364;2023-05-15T11:53:12;19.50;99.90
53599;DHT22;39485;45.702;11.364;2023-05-15T11:55:40;19.60;99.90
53599;DHT22;39485;45.702;11.364;2023-05-15T11:58:16;19.70;99.90
53599;DHT22;39485;45.702;11.364;2023-05-15T12:00:44;19.80;99.90
53599;DHT22;39485;45.702;11.364;2023-05-15T12:03:13;19.90;99.90
53599;DHT22;39485;45.702;11.364;2023-05-15T12:05:40;20.00;99.90
53599;DHT22;39485;45.702;11.364;2023-05-15T12:08:09;20.00;99.90
53599;DHT22;39485;45.702;11.364;2023-05-15T12:10:42;20.00;99.90
53599;DHT22;39485;45.702;11.364;2023-05-15T12:13:12;20.00;99.90
53599;DHT22;39485;45.702;11.364;2023-05-15T12:15:39;20.00;99.90
53599;DHT22;39485;45.702;11.364;2023-05-15T12:18:06;20.00;99.90
53599;DHT22;39485;45.702;11.364;2023-05-15T12:20:34;20.00;99.90
53599;DHT22;39485;45.702;11.364;2023-05-15T12:23:04;20.10;99.90
53599;DHT22;39485;45.702;11.364;2023-05-15T12:25:31;20.10;99.90
53599;DHT22;39485;45.702;11.364;2023-05-15T12:27:58;20.10;99.90
53599;DHT22;39485;45.702;11.364;2023-05-15T12:30:24;20.10;99.90
53599;DHT22;39485;45.702;11.364;2023-05-15T12:32:50;20.10;99.60
53599;DHT22;39485;45.702;11.364;2023-05-15T12:35:16;20.10;99.70
53599;DHT22;39485;45.702;11.364;2023-05-15T12:37:41;20.00;98.80
53599;DHT22;39485;45.702;11.364;2023-05-15T12:40:08;20.00;99.20
53599;DHT22;39485;45.702;11.364;2023-05-15T12:42:40;20.00;97.80
53599;DHT22;39485;45.702;11.364;2023-05-15T12:45:14;19.90;98.20
53599;DHT22;39485;45.702;11.364;2023-05-15T12:47:41;19.90;98.70
53599;DHT22;39485;45.702;11.364;2023-05-15T12:50:18;19.90;98.70
53599;DHT22;39485;45.702;11.364;2023-05-15T12:52:52;19.90;98.80
53599;DHT22;39485;45.702;11.364;2023-05-15T12:55:39;19.90;98.00
53599;DHT22;39485;45.702;11.364;2023-05-15T12:58:26;19.90;98.90
53599;DHT22;39485;45.702;11.364;2023-05-15T13:01:00;19.90;99.50
53599;DHT22;39485;45.702;11.364;2023-05-15T13:03:34;19.90;99.90
53599;DHT22;39485;45.702;11.364;2023-05-15T13:06:03;19.90;99.50
53599;DHT22;39485;45.702;11.364;2023-05-15T13:08:31;19.90;99.80
53599;DHT22;39485;45.702;11.364;2023-05-15T13:10:58;20.00;99.80
53599;DHT22;39485;45.702;11.364;2023-05-15T13:13:49;20.00;99.90
53599;DHT22;39485;45.702;11.364;2023-05-15T13:16:25;20.00;99.90
53599;DHT22;39485;45.702;11.364;2023-05-15T13:18:51;20.00;98.30
53599;DHT22;39485;45.702;11.364;2023-05-15T13:21:17;20.00;99.20
53599;DHT22;39485;45.702;11.364;2023-05-15T13:23:43;20.00;98.80
53599;DHT22;39485;45.702;11.364;2023-05-15T13:26:09;20.00;98.70
53599;DHT22;39485;45.702;11.364;2023-05-15T13:28:34;19.90;98.90
53599;DHT22;39485;45.702;11.364;2023-05-15T13:31:00;19.90;98.80
53599;DHT22;39485;45.702;11.364;2023-05-15T13:33:26;19.90;98.90
53599;DHT22;39485;45.702;11.364;2023-05-15T13:35:53;19.90;98.50
53599;DHT22;39485;45.702;11.364;2023-05-15T13:38:19;19.90;98.20
53599;DHT22;39485;45.702;11.364;2023-05-15T13:40:45;19.90;99.10
53599;DHT22;39485;45.702;11.364;2023-05-15T13:43:10;20.00;98.10
53599;DHT22;39485;45.702;11.364;2023-05-15T13:45:36;20.00;98.10
53599;DHT22;39485;45.702;11.364;2023-05-15T13:48:02;20.00;98.80
53599;DHT22;39485;45.702;11.364;2023-05-15T13:50:28;20.00;99.60
53599;DHT22;39485;45.702;11.364;2023-05-15T13:52:54;20.10;99.10
53599;DHT22;39485;45.702;11.364;2023-05-15T13:55:20;20.10;99.10
53599;DHT22;39485;45.702;11.364;2023-05-15T13:57:45;20.10;98.40
53599;DHT22;39485;45.702;11.364;2023-05-15T14:00:14;20.10;98.20
53599;DHT22;39485;45.702;11.364;2023-05-15T14:02:40;20.10;97.50
53599;DHT22;39485;45.702;11.364;2023-05-15T14:05:11;20.10;98.30
53599;DHT22;39485;45.702;11.364;2023-05-15T14:07:37;20.10;98.90
53599;DHT22;39485;45.702;11.364;2023-05-15T14:10:03;20.20;99.80
53599;DHT22;39485;45.702;11.364;2023-05-15T14:12:29;20.30;99.80
53599;DHT22;39485;45.702;11.364;2023-05-15T14:14:56;20.30;99.60
53599;DHT22;39485;45.702;11.364;2023-05-15T14:17:21;20.30;99.90
53599;DHT22;39485;45.702;11.364;2023-05-15T14:19:47;20.30;99.90
53599;DHT22;39485;45.702;11.364;2023-05-15T14:22:13;20.40;99.70
53599;DHT22;39485;45.702;11.364;2023-05-15T14:24:40;20.40;99.50
53599;DHT22;39485;45.702;11.364;2023-05-15T14:27:05;20.40;99.00
53599;DHT22;39485;45.702;11.364;2023-05-15T14:29:31;20.40;99.10
53599;DHT22;39485;45.702;11.364;2023-05-15T14:31:57;20.40;98.30
53599;DHT22;39485;45.702;11.364;2023-05-15T14:34:22;20.40;98.40
53599;DHT22;39485;45.702;11.364;2023-05-15T14:36:49;20.40;98.30
53599;DHT22;39485;45.702;11.364;2023-05-15T14:39:15;20.30;97.40
53599;DHT22;39485;45.702;11.364;2023-05-15T14:41:42;20.30;98.50
53599;DHT22;39485;45.702;11.364;2023-05-15T14:44:08;20.20;98.40
53599;DHT22;39485;45.702;11.364;2023-05-15T14:46:33;20.20;98.60
53599;DHT22;39485;45.702;11.364;2023-05-15T14:49:05;20.20;98.40
53599;DHT22;39485;45.702;11.364;2023-05-15T14:51:31;20.20;98.80
53599;DHT22;39485;45.702;11.364;2023-05-15T14:53:56;20.10;98.70
53599;DHT22;39485;45.702;11.364;2023-05-15T14:56:22;20.10;98.80
53599;DHT22;39485;45.702;11.364;2023-05-15T14:58:48;20.00;98.90
53599;DHT22;39485;45.702;11.364;2023-05-15T15:01:15;20.00;99.40
53599;DHT22;39485;45.702;11.364;2023-05-15T15:03:40;19.90;99.90
53599;DHT22;39485;45.702;11.364;2023-05-15T15:06:09;19.90;99.90
53599;DHT22;39485;45.702;11.364;2023-05-15T15:08:35;19.80;99.90
53599;DHT22;39485;45.702;11.364;2023-05-15T15:11:00;19.70;99.90
53599;DHT22;39485;45.702;11.364;2023-05-15T15:13:27;19.70;99.90
53599;DHT22;39485;45.702;11.364;2023-05-15T15:15:54;19.70;99.90
53599;DHT22;39485;45.702;11.364;2023-05-15T15:18:20;19.70;99.90
53599;DHT22;39485;45.702;11.364;2023-05-15T15:20:46;19.60;99.90
53599;DHT22;39485;45.702;11.364;2023-05-15T15:23:12;19.60;99.90
53599;DHT22;39485;45.702;11.364;2023-05-15T15:25:38;19.60;99.90
53599;DHT22;39485;45.702;11.364;2023-05-15T15:28:03;19.60;99.90
53599;DHT22;39485;45.702;11.364;2023-05-15T15:30:29;19.60;99.90
53599;DHT22;39485;45.702;11.364;2023-05-15T15:32:55;19.60;99.90
53599;DHT22;39485;45.702;11.364;2023-05-15T15:35:22;19.70;99.90
53599;DHT22;39485;45.702;11.364;2023-05-15T15:37:47;19.70;99.90
53599;DHT22;39485;45.702;11.364;2023-05-15T15:40:13;19.70;99.90
53599;DHT22;39485;45.702;11.364;2023-05-15T15:42:39;19.80;99.90
53599;DHT22;39485;45.702;11.364;2023-05-15T15:45:05;19.80;99.90
53599;DHT22;39485;45.702;11.364;2023-05-15T15:47:31;19.80;99.90
53599;DHT22;39485;45.702;11.364;2023-05-15T15:49:57;19.90;99.90